createdAt,value
2023-01-02T00:01:09.367Z,1.00
2023-01-02T00:03:37.115Z,1.63
2023-01-02T00:06:06.558Z,1.30
2023-01-02T00:08:34.592Z,1.70
2023-01-02T00:11:02.285Z,1.10
2023-01-02T00:13:30.094Z,1.07
2023-01-02T00:15:57.803Z,1.20
2023-01-02T00:18:25.507Z,0.93
2023-01-02T00:20:53.204Z,1.67
2023-01-02T00:23:20.848Z,1.53
2023-01-02T00:25:52.807Z,1.57
2023-01-02T00:28:20.471Z,1.20
2023-01-02T00:30:48.083Z,1.40
2023-01-02T00:33:16.750Z,1.77
2023-01-02T00:35:44.409Z,1.80
2023-01-02T00:38:12.068Z,1.80
2023-01-02T00:40:40.158Z,1.47
2023-01-02T00:43:07.796Z,1.67
2023-01-02T00:45:35.465Z,0.70
2023-01-02T00:48:03.203Z,1.40
2023-01-02T00:50:30.839Z,1.13
2023-01-02T00:52:58.564Z,1.43
2023-01-02T00:55:26.209Z,1.77
2023-01-02T00:57:53.892Z,0.93
2023-01-02T01:00:24.087Z,0.97
2023-01-02T01:02:55.709Z,1.37
2023-01-02T01:05:23.392Z,1.35
2023-01-02T01:07:51.132Z,1.00
2023-01-02T01:10:18.847Z,1.10
2023-01-02T01:12:46.465Z,0.80
2023-01-02T01:15:14.173Z,3.30
2023-01-02T01:17:41.888Z,1.90
2023-01-02T01:20:10.268Z,0.80
2023-01-02T01:22:37.943Z,1.40
2023-01-02T01:25:06.114Z,0.90
2023-01-02T01:27:33.790Z,1.10
2023-01-02T01:30:01.462Z,0.80
2023-01-02T01:32:30.239Z,0.70
2023-01-02T01:34:57.885Z,0.80
2023-01-02T01:37:25.635Z,0.57
2023-01-02T01:39:56.613Z,0.93
2023-01-02T01:42:24.576Z,1.00
2023-01-02T01:44:54.712Z,0.50
2023-01-02T01:47:40.859Z,1.43
2023-01-02T01:50:37.808Z,0.73
2023-01-02T01:53:11.188Z,1.00
2023-01-02T01:55:47.179Z,1.17
2023-01-02T01:58:20.164Z,0.83
2023-01-02T02:00:48.820Z,1.07
2023-01-02T02:03:21.860Z,1.03
2023-01-02T02:05:51.528Z,0.57
2023-01-02T02:08:50.176Z,0.97
2023-01-02T02:11:19.111Z,1.20
2023-01-02T02:13:47.521Z,1.70
2023-01-02T02:16:18.282Z,1.77
2023-01-02T02:18:55.038Z,0.77
2023-01-02T02:21:44.590Z,0.73
2023-01-02T02:24:15.272Z,1.30
2023-01-02T02:27:24.368Z,1.03
2023-01-02T02:30:03.303Z,0.80
2023-01-02T02:33:00.981Z,0.67
2023-01-02T02:36:04.462Z,1.33
2023-01-02T02:38:58.219Z,1.30
2023-01-02T02:41:36.624Z,0.60
2023-01-02T02:44:25.502Z,1.20
2023-01-02T02:47:04.949Z,1.20
2023-01-02T02:49:59.764Z,0.97
2023-01-02T02:52:33.238Z,1.13
2023-01-02T02:55:03.688Z,1.13
2023-01-02T02:57:32.618Z,1.00
2023-01-02T03:00:00.314Z,0.83
2023-01-02T03:02:28.207Z,0.80
2023-01-02T03:05:01.054Z,1.03
2023-01-02T03:07:41.052Z,1.27
2023-01-02T03:10:33.211Z,0.57
2023-01-02T03:15:36.476Z,0.87
2023-01-02T03:18:37.509Z,1.00
2023-01-02T03:21:15.022Z,0.60
2023-01-02T03:23:46.398Z,1.57
2023-01-02T03:26:27.920Z,1.27
2023-01-02T03:29:00.459Z,0.50
2023-01-02T03:31:30.705Z,0.67
2023-01-02T03:34:16.191Z,1.27
2023-01-02T03:36:49.082Z,0.97
2023-01-02T03:39:24.325Z,1.00
2023-01-02T03:42:00.275Z,0.93
2023-01-02T03:44:38.667Z,0.70
2023-01-02T03:47:27.836Z,1.17
2023-01-02T03:50:00.388Z,1.13
2023-01-02T03:52:28.245Z,0.93
2023-01-02T03:54:58.774Z,1.30
2023-01-02T03:58:03.026Z,1.10
2023-01-02T04:00:42.452Z,0.80
2023-01-02T04:03:26.513Z,0.90
2023-01-02T04:06:03.429Z,0.87
2023-01-02T04:08:46.902Z,0.67
2023-01-02T04:11:18.528Z,0.77
2023-01-02T04:14:12.021Z,1.10
2023-01-02T04:16:41.531Z,0.80
2023-01-02T04:19:24.205Z,0.87
2023-01-02T04:21:56.616Z,1.27
2023-01-02T04:24:30.403Z,1.73
2023-01-02T04:27:01.267Z,1.40
2023-01-02T04:29:29.396Z,1.77
2023-01-02T04:32:04.168Z,1.03
2023-01-02T04:34:36.254Z,1.60
2023-01-02T04:37:04.005Z,1.57
2023-01-02T04:39:32.152Z,1.03
2023-01-02T04:41:59.832Z,1.10
2023-01-02T04:44:27.456Z,1.47
2023-01-02T04:46:55.159Z,1.30
2023-01-02T04:49:26.717Z,1.30
2023-01-02T04:51:54.421Z,1.88
2023-01-02T04:54:22.090Z,1.33
2023-01-02T04:56:49.718Z,1.53
2023-01-02T04:59:17.383Z,1.73
2023-01-02T05:01:45.164Z,2.23
2023-01-02T05:04:13.889Z,1.73
2023-01-02T05:06:41.515Z,2.17
2023-01-02T05:09:09.261Z,1.90
2023-01-02T05:11:36.925Z,1.83
2023-01-02T05:14:07.554Z,2.77
2023-01-02T05:16:35.711Z,2.33
2023-01-02T05:19:03.423Z,1.90
2023-01-02T05:21:48.392Z,2.03
2023-01-02T05:24:16.045Z,2.40
2023-01-02T05:26:43.676Z,2.17
2023-01-02T05:29:11.333Z,2.13
2023-01-02T05:31:39.153Z,2.00
2023-01-02T05:34:06.863Z,2.53
2023-01-02T05:36:34.534Z,1.50
2023-01-02T05:39:02.260Z,1.90
2023-01-02T05:41:29.948Z,2.10
2023-01-02T05:43:57.579Z,2.53
2023-01-02T05:46:25.233Z,2.93
2023-01-02T05:48:52.884Z,1.23
2023-01-02T05:51:20.663Z,2.17
2023-01-02T05:53:48.334Z,2.30
2023-01-02T05:56:19.086Z,1.63
2023-01-02T05:58:48.408Z,1.57
2023-01-02T06:01:18.346Z,1.63
2023-01-02T06:03:50.855Z,1.83
2023-01-02T06:06:20.795Z,2.20
2023-01-02T06:08:48.500Z,1.90
2023-01-02T06:11:16.607Z,2.00
2023-01-02T06:13:44.331Z,1.97
2023-01-02T06:16:12.436Z,1.63
2023-01-02T06:18:41.174Z,1.57
2023-01-02T06:21:12.240Z,2.17
2023-01-02T06:23:40.593Z,1.52
2023-01-02T06:26:20.387Z,1.50
2023-01-02T06:28:51.996Z,1.83
2023-01-02T06:31:21.346Z,1.73
2023-01-02T06:33:49.099Z,1.57
2023-01-02T06:36:19.130Z,1.67
2023-01-02T06:38:47.726Z,2.03
2023-01-02T06:41:16.118Z,1.70
2023-01-02T06:43:52.815Z,1.80
2023-01-02T06:46:22.804Z,1.53
2023-01-02T06:48:51.105Z,1.50
2023-01-02T06:51:22.354Z,1.30
2023-01-02T06:53:50.144Z,2.30
2023-01-02T06:56:19.488Z,2.23
2023-01-02T06:58:47.225Z,2.40
2023-01-02T07:01:20.536Z,3.23
2023-01-02T07:03:49.078Z,2.23
2023-01-02T07:06:23.375Z,2.07
2023-01-02T07:08:51.017Z,1.87
2023-01-02T07:11:22.225Z,1.80
2023-01-02T07:13:52.298Z,1.63
2023-01-02T07:16:21.983Z,1.70
2023-01-02T07:18:49.925Z,1.50
2023-01-02T07:21:19.127Z,2.30
2023-01-02T07:23:47.094Z,1.97
2023-01-02T07:26:15.330Z,1.70
2023-01-02T07:28:43.050Z,1.80
2023-01-02T07:31:15.890Z,2.30
2023-01-02T07:33:44.087Z,1.97
2023-01-02T07:36:15.100Z,1.80
2023-01-02T07:38:42.770Z,1.65
2023-01-02T07:41:18.438Z,1.00
2023-01-02T07:43:47.086Z,1.50
2023-01-02T07:46:17.286Z,1.37
2023-01-02T07:48:45.863Z,2.07
2023-01-02T07:51:16.413Z,1.70
2023-01-02T07:53:46.204Z,1.30
2023-01-02T07:56:14.022Z,2.00
2023-01-02T07:58:41.677Z,1.17
2023-01-02T08:01:13.905Z,1.27
2023-01-02T08:03:42.219Z,1.00
2023-01-02T08:06:13.080Z,1.70
2023-01-02T08:08:41.493Z,1.20
2023-01-02T08:11:12.383Z,1.37
2023-01-02T08:13:40.084Z,1.10
2023-01-02T08:16:16.354Z,1.30
2023-01-02T08:18:44.520Z,1.50
2023-01-02T08:21:12.775Z,1.03
2023-01-02T08:23:41.677Z,1.60
2023-01-02T08:26:11.957Z,1.17
2023-01-02T08:28:41.531Z,1.43
2023-01-02T08:31:16.059Z,1.90
2023-01-02T08:33:44.013Z,0.77
2023-01-02T08:36:12.258Z,1.17
2023-01-02T08:38:39.885Z,0.90
2023-01-02T08:41:08.302Z,1.03
2023-01-02T08:43:37.339Z,1.47
2023-01-02T08:46:10.089Z,1.70
2023-01-02T08:48:37.934Z,0.90
2023-01-02T08:51:06.895Z,1.40
2023-01-02T08:53:34.586Z,1.00
2023-01-02T08:56:22.516Z,0.80
2023-01-02T08:58:58.447Z,1.30
2023-01-02T09:01:27.367Z,1.30
2023-01-02T09:03:55.946Z,0.83
2023-01-02T09:06:25.966Z,1.27
2023-01-02T09:08:55.490Z,1.07
2023-01-02T09:11:29.420Z,1.27
2023-01-02T09:13:59.568Z,1.00
2023-01-02T09:16:27.795Z,0.80
2023-01-02T09:18:57.846Z,0.90
2023-01-02T09:21:25.629Z,0.80
2023-01-02T09:23:53.420Z,0.77
2023-01-02T09:26:21.515Z,1.43
2023-01-02T09:28:49.201Z,1.03
2023-01-02T09:31:18.513Z,1.07
2023-01-02T09:33:48.154Z,1.00
2023-01-02T09:36:19.085Z,1.23
2023-01-02T09:38:52.743Z,0.90
2023-01-02T09:41:32.318Z,0.93
2023-01-02T09:44:14.589Z,1.23
2023-01-02T09:46:57.121Z,0.90
2023-01-02T09:49:30.644Z,0.90
2023-01-02T09:51:58.638Z,0.77
2023-01-02T09:54:30.078Z,1.33
2023-01-02T09:57:28.040Z,1.08
2023-01-02T10:00:06.180Z,1.17
2023-01-02T10:03:11.408Z,0.67
2023-01-02T10:05:42.027Z,1.48
2023-01-02T10:08:32.260Z,1.53
2023-01-02T10:11:36.065Z,1.60
2023-01-02T10:14:20.300Z,1.00
2023-01-02T10:16:54.188Z,1.30
2023-01-02T10:19:34.526Z,1.00
2023-01-02T10:22:03.828Z,0.97
2023-01-02T10:24:46.717Z,1.10
2023-01-02T10:27:19.417Z,0.63
2023-01-02T10:30:02.170Z,1.20
2023-01-02T10:32:32.976Z,1.37
2023-01-02T10:35:03.520Z,1.47
2023-01-02T10:37:31.263Z,1.07
2023-01-02T10:39:59.224Z,1.50
2023-01-02T10:42:27.170Z,1.20
2023-01-02T10:44:54.881Z,1.20
2023-01-02T10:47:25.709Z,1.00
2023-01-02T10:49:54.629Z,0.80
2023-01-02T10:52:48.148Z,1.23
2023-01-02T10:55:30.701Z,0.67
2023-01-02T10:58:23.454Z,1.10
2023-01-02T11:00:56.512Z,0.90
2023-01-02T11:03:26.122Z,0.90
2023-01-02T11:06:02.179Z,1.03
2023-01-02T11:08:40.570Z,0.70
2023-01-02T11:11:15.763Z,0.97
2023-01-02T11:13:53.786Z,1.27
2023-01-02T11:16:24.042Z,0.80
2023-01-02T11:18:54.919Z,1.30
2023-01-02T11:21:43.998Z,1.33
2023-01-02T11:24:16.873Z,0.97
2023-01-02T11:26:51.701Z,0.93
2023-01-02T11:29:37.008Z,0.93
2023-01-02T11:32:05.192Z,1.67
2023-01-02T11:34:39.224Z,1.17
2023-01-02T11:37:17.077Z,1.37
2023-01-02T11:39:59.111Z,1.30
2023-01-02T11:43:07.692Z,1.20
2023-01-02T11:45:36.579Z,1.33
2023-01-02T11:48:10.953Z,1.40
2023-01-02T11:50:39.520Z,1.63
2023-01-02T11:53:19.862Z,0.87
2023-01-02T11:55:56.352Z,1.20
2023-01-02T11:58:30.086Z,1.30
2023-01-02T12:01:06.748Z,1.63
2023-01-02T12:03:34.980Z,1.13
2023-01-02T12:06:24.575Z,1.33
2023-01-02T12:09:11.306Z,1.83
2023-01-02T12:12:01.854Z,1.33
2023-01-02T12:14:54.303Z,1.73
2023-01-02T12:17:43.656Z,1.60
2023-01-02T12:20:11.237Z,1.43
2023-01-02T12:22:57.085Z,1.57
2023-01-02T12:25:42.757Z,0.70
2023-01-02T12:29:00.928Z,1.33
2023-01-02T12:31:35.142Z,0.87
2023-01-02T12:34:21.899Z,1.03
2023-01-02T12:37:04.446Z,0.50
2023-01-02T12:39:44.320Z,0.80
2023-01-02T12:42:39.827Z,0.67
2023-01-02T12:45:24.048Z,0.50
2023-01-02T12:48:16.097Z,0.50
2023-01-02T12:53:39.662Z,0.60
2023-01-02T12:56:22.742Z,0.63
2023-01-02T12:59:22.911Z,0.40
2023-01-02T13:01:55.232Z,0.77
2023-01-02T13:04:29.501Z,0.70
2023-01-02T13:07:05.966Z,0.50
2023-01-02T13:09:38.911Z,0.70
2023-01-02T13:12:14.451Z,0.90
2023-01-02T13:14:54.977Z,0.10
2023-01-02T13:17:41.512Z,0.50
2023-01-02T13:20:21.137Z,0.87
2023-01-02T13:23:11.625Z,0.70
2023-01-02T13:25:48.266Z,0.70
2023-01-02T13:28:17.963Z,0.70
2023-01-02T13:31:11.247Z,0.50
2023-01-02T13:33:47.666Z,0.63
2023-01-02T13:36:37.966Z,0.53
2023-01-02T13:39:18.599Z,0.53
2023-01-02T13:42:13.342Z,1.17
2023-01-02T13:44:45.487Z,0.60
2023-01-02T13:47:34.084Z,0.97
2023-01-02T13:50:32.567Z,0.50
2023-01-02T13:53:12.635Z,0.20
2023-01-02T13:55:43.254Z,0.83
2023-01-02T13:58:18.288Z,0.47
2023-01-02T14:00:54.272Z,0.40
2023-01-02T14:03:23.202Z,0.33
2023-01-02T14:06:26.509Z,0.67
2023-01-02T14:09:06.270Z,1.10
2023-01-02T14:11:55.914Z,0.30
2023-01-02T14:14:42.925Z,0.40
2023-01-02T14:17:32.376Z,0.50
2023-01-02T14:20:18.282Z,0.83
2023-01-02T14:22:50.399Z,0.60
2023-01-02T14:25:19.171Z,0.47
2023-01-02T14:27:54.485Z,0.70
2023-01-02T14:30:36.176Z,0.60
2023-01-02T14:33:07.362Z,0.52
2023-01-02T14:35:49.892Z,1.00
2023-01-02T14:38:19.829Z,0.67
2023-01-02T14:40:48.513Z,0.53
2023-01-02T14:43:36.456Z,0.60
2023-01-02T14:46:14.275Z,0.43
2023-01-02T14:49:24.876Z,1.47
2023-01-02T14:52:06.519Z,0.97
2023-01-02T14:55:00.816Z,0.70
2023-01-02T14:57:35.484Z,0.57
2023-01-02T15:00:18.773Z,0.37
2023-01-02T15:02:49.591Z,0.53
2023-01-02T15:05:34.554Z,0.68
2023-01-02T15:08:05.353Z,0.70
2023-01-02T15:10:33.171Z,0.70
2023-01-02T15:13:04.344Z,0.50
2023-01-02T15:15:44.627Z,1.27
2023-01-02T15:18:24.334Z,0.63
2023-01-02T15:20:55.961Z,0.90
2023-01-02T15:23:27.055Z,0.50
2023-01-02T15:26:33.453Z,0.33
2023-01-02T15:28:43.480Z,0.70
2023-01-02T15:31:16.525Z,0.63
2023-01-02T15:33:44.231Z,1.20
2023-01-02T15:36:19.158Z,0.57
2023-01-02T15:38:47.918Z,0.77
2023-01-02T15:41:20.692Z,0.80
2023-01-02T15:44:08.868Z,0.67
2023-01-02T15:46:36.717Z,1.03
2023-01-02T15:49:05.094Z,0.27
2023-01-02T15:51:39.733Z,0.77
2023-01-02T15:54:14.384Z,1.23
2023-01-02T15:56:43.014Z,0.53
2023-01-02T15:59:32.105Z,0.40
2023-01-02T16:01:59.824Z,0.50
2023-01-02T16:04:35.152Z,0.50
2023-01-02T16:07:16.036Z,0.50
2023-01-02T16:09:56.553Z,0.37
2023-01-02T16:12:24.827Z,0.80
2023-01-02T16:14:57.215Z,0.63
2023-01-02T16:17:31.428Z,0.47
2023-01-02T16:20:07.383Z,0.70
2023-01-02T16:23:04.456Z,0.50
2023-01-02T16:25:35.280Z,1.10
2023-01-02T16:28:34.835Z,0.70
2023-01-02T16:31:16.568Z,1.00
2023-01-02T16:33:45.852Z,0.90
2023-01-02T16:36:16.490Z,1.50
2023-01-02T16:39:00.475Z,0.60
2023-01-02T16:41:35.011Z,0.90
2023-01-02T16:44:03.683Z,0.40
2023-01-02T16:46:31.898Z,0.80
2023-01-02T16:49:05.034Z,0.77
2023-01-02T16:51:33.613Z,0.53
2023-01-02T16:54:01.461Z,1.10
2023-01-02T16:56:29.228Z,0.90
2023-01-02T16:58:56.915Z,0.67
2023-01-02T17:01:25.405Z,0.70
2023-01-02T17:03:53.161Z,0.40
2023-01-02T17:06:21.529Z,0.90
2023-01-02T17:08:49.153Z,0.50
2023-01-02T17:11:19.553Z,0.73
2023-01-02T17:13:47.164Z,0.30
2023-01-02T17:16:15.354Z,0.70
2023-01-02T17:18:43.500Z,0.60
2023-01-02T17:21:12.548Z,0.80
2023-01-02T17:23:40.359Z,0.47
2023-01-02T17:26:08.118Z,0.47
2023-01-02T17:28:36.740Z,0.83
2023-01-02T17:31:04.528Z,0.70
2023-01-02T17:33:32.199Z,0.70
2023-01-02T17:35:59.816Z,0.90
2023-01-02T17:38:27.471Z,0.70
2023-01-02T17:40:59.180Z,0.43
2023-01-02T17:43:27.256Z,0.43
2023-01-02T17:45:54.993Z,0.50
2023-01-02T17:48:25.027Z,0.50
2023-01-02T17:50:54.735Z,0.53
2023-01-02T17:53:22.639Z,0.20
2023-01-02T17:56:21.525Z,0.70
2023-01-02T17:58:46.791Z,0.70
2023-01-02T18:01:19.832Z,0.73
2023-01-02T18:03:48.199Z,0.47
2023-01-02T18:06:17.177Z,0.50
2023-01-02T18:08:45.557Z,0.60
2023-01-02T18:11:16.018Z,0.30
2023-01-02T18:13:49.330Z,0.27
2023-01-02T18:16:22.096Z,0.47
2023-01-02T18:18:51.553Z,0.50
2023-01-02T18:21:22.689Z,0.20
2023-01-02T18:23:54.721Z,0.45
2023-01-02T18:26:22.829Z,0.47
2023-01-02T18:28:57.035Z,0.77
2023-01-02T18:31:26.157Z,0.30
2023-01-02T18:33:57.980Z,1.23
2023-01-02T18:36:26.326Z,0.50
2023-01-02T18:39:11.359Z,0.40
2023-01-02T18:41:39.930Z,0.60
2023-01-02T18:44:34.116Z,0.63
2023-01-02T18:47:26.831Z,0.30
2023-01-02T18:49:56.251Z,0.37
2023-01-02T18:52:33.229Z,0.50
2023-01-02T18:55:16.751Z,1.73
2023-01-02T18:57:56.005Z,0.27
2023-01-02T19:00:31.440Z,0.43
2023-01-02T19:03:03.152Z,0.13
2023-01-02T19:05:40.695Z,0.45
2023-01-02T19:08:23.867Z,0.20
2023-01-02T19:10:56.802Z,0.53
2023-01-02T19:13:33.564Z,0.73
2023-01-02T19:16:06.583Z,0.40
2023-01-02T19:18:35.584Z,0.83
2023-01-02T19:21:17.582Z,0.63
2023-01-02T19:26:31.253Z,0.87
2023-01-02T19:29:08.533Z,0.40
2023-01-02T19:31:43.670Z,0.73
2023-01-02T19:34:35.574Z,0.53
2023-01-02T19:37:12.078Z,0.32
2023-01-02T19:39:48.408Z,0.20
2023-01-02T19:42:23.016Z,0.40
2023-01-02T19:44:56.644Z,0.20
2023-01-02T19:47:27.683Z,0.40
2023-01-02T19:49:55.521Z,0.57
2023-01-02T19:52:23.876Z,0.20
2023-01-02T19:54:52.392Z,0.40
2023-01-02T19:57:20.758Z,0.40
2023-01-02T19:59:50.019Z,0.73
2023-01-02T20:02:22.959Z,0.30
2023-01-02T20:04:53.761Z,0.10
2023-01-02T20:07:22.993Z,0.10
2023-01-02T20:09:51.252Z,0.13
2023-01-02T20:12:32.713Z,0.33
2023-01-02T20:15:05.730Z,0.38
2023-01-02T20:17:34.420Z,0.40
2023-01-02T20:20:02.405Z,0.23
2023-01-02T20:22:30.566Z,0.40
2023-01-02T20:24:59.137Z,0.50
2023-01-02T20:27:27.027Z,0.43
2023-01-02T20:29:55.225Z,0.00
2023-01-02T20:32:23.874Z,0.40
2023-01-02T20:34:52.505Z,0.70
2023-01-02T20:37:21.156Z,0.30
2023-01-02T20:39:53.669Z,0.40
2023-01-02T20:42:22.289Z,0.60
2023-01-02T20:44:50.594Z,0.70
2023-01-02T20:47:18.721Z,0.50
2023-01-02T20:49:46.500Z,0.20
2023-01-02T20:52:14.214Z,0.40
2023-01-02T20:54:42.001Z,0.10
2023-01-02T20:57:12.070Z,0.33
2023-01-02T20:59:39.834Z,0.50
2023-01-02T21:02:07.635Z,0.53
2023-01-02T21:04:37.250Z,0.63
2023-01-02T21:07:06.803Z,0.43
2023-01-02T21:09:34.873Z,0.23
2023-01-02T21:12:02.536Z,0.50
2023-01-02T21:14:37.178Z,0.50
2023-01-02T21:17:05.595Z,0.77
2023-01-02T21:19:33.248Z,0.50
2023-01-02T21:22:00.958Z,0.40
2023-01-02T21:24:28.603Z,0.30
2023-01-02T21:26:56.237Z,0.60
2023-01-02T21:29:23.900Z,0.50
2023-01-02T21:31:51.569Z,0.57
2023-01-02T21:34:19.285Z,0.30
2023-01-02T21:36:46.926Z,0.83
2023-01-02T21:39:14.621Z,0.70
2023-01-02T21:41:59.756Z,1.00
2023-01-02T21:44:27.487Z,1.13
2023-01-02T21:46:55.205Z,0.87
2023-01-02T21:49:22.887Z,0.83
2023-01-02T21:51:52.741Z,0.80
2023-01-02T21:54:20.426Z,0.80
2023-01-02T21:56:48.139Z,0.63
2023-01-02T21:59:15.862Z,0.70
2023-01-02T22:01:43.668Z,0.80
2023-01-02T22:04:12.025Z,0.80
2023-01-02T22:07:04.365Z,0.70
2023-01-02T22:09:28.504Z,0.50
2023-01-02T22:11:56.159Z,1.10
2023-01-02T22:14:32.619Z,0.83
2023-01-02T22:17:04.533Z,0.73
2023-01-02T22:19:32.707Z,0.70
2023-01-02T22:22:02.218Z,0.70
2023-01-02T22:24:30.300Z,0.33
2023-01-02T22:27:01.897Z,0.63
2023-01-02T22:32:18.066Z,0.40
2023-01-02T22:34:46.081Z,1.00
2023-01-02T22:37:22.033Z,0.60
2023-01-02T22:39:50.388Z,0.43
2023-01-02T22:45:30.017Z,0.30
2023-01-02T22:48:02.759Z,0.70
2023-01-02T22:50:36.824Z,0.70
2023-01-02T22:53:08.032Z,0.50
2023-01-02T22:55:35.720Z,0.22
2023-01-02T22:58:03.340Z,0.50
2023-01-02T23:00:31.097Z,0.67
2023-01-02T23:02:58.764Z,0.73
2023-01-02T23:05:26.595Z,0.40
2023-01-02T23:07:54.259Z,0.10
2023-01-02T23:10:21.981Z,0.50
2023-01-02T23:12:49.686Z,0.40
2023-01-02T23:15:17.459Z,0.30
2023-01-02T23:18:03.255Z,0.30
2023-01-02T23:20:30.972Z,0.30
2023-01-02T23:22:58.631Z,0.33
2023-01-02T23:25:26.653Z,0.20
2023-01-02T23:27:54.490Z,0.37
2023-01-02T23:30:22.269Z,0.40
2023-01-02T23:32:49.892Z,0.20
2023-01-02T23:35:17.683Z,0.33
2023-01-02T23:37:45.336Z,0.37
2023-01-02T23:40:13.438Z,0.30
2023-01-02T23:42:41.047Z,0.30
2023-01-02T23:45:09.083Z,0.10
2023-01-02T23:47:36.770Z,0.10
2023-01-02T23:50:04.546Z,0.53
2023-01-02T23:52:32.197Z,0.10
2023-01-02T23:54:59.873Z,0.30
2023-01-02T23:57:27.521Z,0.10
2023-01-02T23:59:55.171Z,0.30
